Time;durP1;ratioP1;P1;durP2;ratioP2;P2;SDS_P1;SDS_P2;PMS_P1;PMS_P2;Temp;Humidity;BMP_temperature;BMP_pressure;BME280_temperature;BME280_humidity;BME280_pressure;Samples;Min_cycle;Max_cycle;Signal;HPM_P1;HPM_P2
2023/10/29 00:02:22;;;;;;;0.40;0.40;;;;;;;9.97;81.55;97166.81;4968350;28;20031;-83
2023/10/29 00:04:47;;;;;;;0.43;0.43;;;;;;;9.86;82.12;97160.50;4971411;28;20038;-81
2023/10/29 00:07:13;;;;;;;0.40;0.40;;;;;;;9.80;82.69;97161.34;4973097;28;20449;-81
2023/10/29 00:09:38;;;;;;;0.40;0.40;;;;;;;9.75;83.65;97153.34;4967663;28;20038;-82
2023/10/29 00:12:04;;;;;;;0.40;0.40;;;;;;;9.65;83.46;97159.47;4967885;28;20042;-82
2023/10/29 00:14:30;;;;;;;0.40;0.40;;;;;;;9.71;84.01;97163.97;4984441;28;20827;-83
2023/10/29 00:16:56;;;;;;;0.40;0.40;;;;;;;9.57;84.86;97157.63;4969552;28;20097;-83
2023/10/29 00:19:21;;;;;;;0.50;0.50;;;;;;;9.39;85.16;97159.28;4968437;28;20041;-81
2023/10/29 00:21:47;;;;;;;0.40;0.40;;;;;;;9.32;85.71;97148.56;4969278;28;20491;-82
2023/10/29 00:24:12;;;;;;;0.50;0.50;;;;;;;9.26;86.19;97146.75;4971219;28;20036;-83
2023/10/29 00:26:38;;;;;;;0.50;0.50;;;;;;;9.36;85.51;97148.59;4969757;28;20372;-83
2023/10/29 00:29:04;;;;;;;0.50;0.50;;;;;;;9.24;85.78;97159.13;4970358;28;20760;-83
2023/10/29 00:31:29;;;;;;;0.40;0.40;;;;;;;9.25;86.34;97151.19;4970102;28;20034;-82
2023/10/29 00:33:55;;;;;;;0.40;0.40;;;;;;;9.39;85.90;97158.38;4968471;28;20512;-82
2023/10/29 00:36:21;;;;;;;0.50;0.50;;;;;;;9.55;84.63;97138.09;4967694;28;20385;-82
2023/10/29 00:38:46;;;;;;;0.40;0.40;;;;;;;9.62;84.03;97145.25;4966914;28;20037;-83
2023/10/29 00:41:12;;;;;;;0.50;0.50;;;;;;;9.63;83.88;97147.94;4966716;28;20041;-82
2023/10/29 00:43:40;;;;;;;0.50;0.50;;;;;;;9.52;84.38;97141.63;4968747;28;20386;-80
2023/10/29 00:46:06;;;;;;;0.40;0.40;;;;;;;9.51;84.44;97148.72;4971567;28;20035;-82
2023/10/29 00:48:32;;;;;;;0.50;0.50;;;;;;;9.53;84.45;97140.75;4972426;28;20037;-81
2023/10/29 00:50:58;;;;;;;0.50;0.50;;;;;;;9.65;84.00;97134.63;4969636;28;20039;-82
2023/10/29 00:53:25;;;;;;;0.50;0.50;;;;;;;9.61;83.75;97133.72;4986574;28;20058;-82
2023/10/29 00:55:51;;;;;;;0.50;0.50;;;;;;;9.55;84.29;97140.78;4973814;28;20054;-82
2023/10/29 00:58:19;;;;;;;0.50;0.50;;;;;;;9.70;83.42;97144.44;4975742;28;20503;-82
2023/10/29 01:00:45;;;;;;;0.60;0.60;;;;;;;9.87;82.37;97140.97;4974568;28;20053;-82
2023/10/29 01:03:11;;;;;;;0.55;0.55;;;;;;;9.83;81.95;97145.41;4974116;28;20115;-83
2023/10/29 01:05:38;;;;;;;0.50;0.50;;;;;;;9.94;81.12;97151.69;4971702;28;20481;-82
2023/10/29 01:08:05;;;;;;;0.50;0.50;;;;;;;9.83;81.93;97140.09;4969769;28;20073;-82
2023/10/29 01:10:34;;;;;;;0.45;0.45;;;;;;;9.86;82.09;97136.53;4971936;28;20031;-82
2023/10/29 01:12:59;;;;;;;0.50;0.50;;;;;;;9.82;82.11;97135.66;4974369;28;20069;-82
2023/10/29 01:15:25;;;;;;;0.50;0.50;;;;;;;9.78;82.11;97128.50;4992065;28;20556;-82
2023/10/29 01:17:51;;;;;;;0.45;0.45;;;;;;;9.82;82.09;97138.31;4974596;28;20046;-82
2023/10/29 01:20:17;;;;;;;0.57;0.57;;;;;;;9.85;82.43;97132.97;4975631;28;20133;-82
2023/10/29 01:22:44;;;;;;;0.50;0.50;;;;;;;9.97;81.30;97127.75;4973027;28;20893;-82
2023/10/29 01:25:10;;;;;;;0.50;0.50;;;;;;;10.13;80.42;97125.16;4975934;28;20034;-82
2023/10/29 01:27:39;;;;;;;0.60;0.60;;;;;;;10.36;78.89;97118.19;4950496;28;20518;-81
2023/10/29 01:30:05;;;;;;;0.50;0.50;;;;;;;10.41;78.58;97112.88;4974427;28;20125;-82
2023/10/29 01:32:32;;;;;;;0.43;0.43;;;;;;;10.21;79.91;97100.31;4957450;28;20058;-82
2023/10/29 01:34:58;;;;;;;0.50;0.50;;;;;;;10.28;79.58;97128.81;4970022;28;20474;-81
2023/10/29 01:37:23;;;;;;;0.50;0.50;;;;;;;10.28;79.45;97133.25;4977862;28;20047;-82
2023/10/29 01:39:49;;;;;;;0.40;0.40;;;;;;;10.33;79.71;97127.94;4974555;28;20066;-82
2023/10/29 01:42:14;;;;;;;0.50;0.50;;;;;;;10.19;80.83;97110.06;4975468;28;20039;-81
2023/10/29 01:44:40;;;;;;;0.50;0.50;;;;;;;10.20;80.21;97117.16;4972806;28;20129;-82
2023/10/29 01:47:05;;;;;;;0.50;0.50;;;;;;;10.07;80.75;97107.38;4972997;28;20053;-82
2023/10/29 01:49:34;;;;;;;0.47;0.47;;;;;;;9.91;81.58;97109.03;4989066;28;20037;-81
2023/10/29 01:52:00;;;;;;;0.50;0.50;;;;;;;9.75;82.07;97099.19;4988309;28;20038;-82
2023/10/29 01:54:26;;;;;;;0.40;0.40;;;;;;;9.69;83.32;97102.72;4987605;28;20038;-82
2023/10/29 01:56:52;;;;;;;0.43;0.43;;;;;;;9.54;83.32;97109.72;4972624;28;20042;-82
2023/10/29 01:59:18;;;;;;;0.50;0.50;;;;;;;9.61;83.64;97090.22;4971527;28;20043;-81
2023/10/29 02:01:43;;;;;;;0.55;0.55;;;;;;;9.47;83.90;97084.78;4988296;28;20058;-80
2023/10/29 02:04:12;;;;;;;0.50;0.50;;;;;;;9.34;85.16;97074.94;4969967;28;20039;-81
2023/10/29 02:06:41;;;;;;;0.40;0.40;;;;;;;9.27;84.41;97071.34;4971499;28;20168;-81
2023/10/29 02:09:10;;;;;;;0.50;0.50;;;;;;;10.08;73.35;97046.97;4971826;28;20130;-80
2023/10/29 02:11:37;;;;;;;0.50;0.50;;;;;;;11.29;67.35;97037.38;4968630;28;20096;-81
2023/10/29 02:14:03;;;;;;;0.50;0.50;;;;;;;11.78;63.36;97030.16;4971421;28;20062;-81
2023/10/29 02:16:29;;;;;;;0.50;0.50;;;;;;;12.31;61.53;97021.09;4976596;28;20097;-79
2023/10/29 02:18:54;;;;;;;0.47;0.47;;;;;;;11.99;63.69;97034.59;4969517;28;20070;-81
2023/10/29 02:21:20;;;;;;;0.40;0.40;;;;;;;11.50;66.22;97034.69;4973662;28;20034;-79
2023/10/29 02:23:46;;;;;;;0.40;0.40;;;;;;;11.66;64.11;97037.34;4971308;28;20089;-82
2023/10/29 02:26:12;;;;;;;0.50;0.50;;;;;;;12.22;60.39;97029.16;4977132;28;20051;-81
2023/10/29 02:28:37;;;;;;;0.40;0.40;;;;;;;12.50;58.77;97034.34;4973090;28;20040;-82
2023/10/29 02:31:03;;;;;;;0.40;0.40;;;;;;;12.45;59.15;97026.34;4970129;28;20058;-79
2023/10/29 02:33:30;;;;;;;0.40;0.40;;;;;;;11.89;62.05;97034.63;4971174;28;20037;-81
2023/10/29 02:35:56;;;;;;;0.43;0.43;;;;;;;11.69;62.00;97027.53;4985873;28;20107;-80
2023/10/29 02:38:22;;;;;;;0.50;0.50;;;;;;;11.23;65.80;97027.59;4986253;28;20096;-82
2023/10/29 02:40:48;;;;;;;0.50;0.50;;;;;;;11.21;65.10;97025.81;4972132;28;20047;-81
2023/10/29 02:43:14;;;;;;;0.40;0.40;;;;;;;11.06;65.71;97026.72;4972866;28;20042;-81
2023/10/29 02:45:42;;;;;;;0.40;0.40;;;;;;;10.59;67.13;97032.00;4972284;28;20066;-81
2023/10/29 02:48:07;;;;;;;0.40;0.40;;;;;;;10.20;69.40;97031.88;4971819;28;20042;-81
2023/10/29 02:50:36;;;;;;;0.40;0.40;;;;;;;10.10;71.26;97034.53;4973588;28;20034;-81
2023/10/29 02:53:01;;;;;;;0.40;0.40;;;;;;;10.05;71.04;97028.28;4970944;28;20042;-81
2023/10/29 02:55:26;;;;;;;0.40;0.40;;;;;;;10.18;68.89;97019.47;4970887;28;20034;-82
2023/10/29 02:57:52;;;;;;;0.47;0.47;;;;;;;10.26;68.12;97023.09;4952876;28;20517;-81
2023/10/29 03:00:18;;;;;;;0.40;0.40;;;;;;;10.39;71.25;97019.53;4963791;28;20041;-81
2023/10/29 03:02:44;;;;;;;0.45;0.45;;;;;;;10.19;72.33;97018.56;4989339;28;20433;-81
2023/10/29 03:05:11;;;;;;;0.40;0.40;;;;;;;10.21;70.76;97020.38;4971737;28;20042;-80
2023/10/29 03:07:36;;;;;;;0.50;0.50;;;;;;;10.18;72.23;97022.13;4972228;28;20043;-81
2023/10/29 03:10:04;;;;;;;0.50;0.50;;;;;;;10.04;71.79;97022.06;4969552;28;20550;-81
2023/10/29 03:12:32;;;;;;;0.50;0.50;;;;;;;9.95;73.98;97016.72;4970756;28;20054;-83
2023/10/29 03:14:57;;;;;;;0.40;0.40;;;;;;;9.83;75.58;97012.22;4972222;28;20050;-81
2023/10/29 03:17:23;;;;;;;0.50;0.50;;;;;;;9.72;75.74;97011.28;4974302;28;20043;-81
2023/10/29 03:19:48;;;;;;;0.50;0.50;;;;;;;9.98;72.59;97004.28;4972366;28;20108;-81
2023/10/29 03:22:14;;;;;;;0.50;0.50;;;;;;;10.10;71.69;96984.78;4953674;28;20105;-81
2023/10/29 03:24:40;;;;;;;0.50;0.50;;;;;;;9.81;72.10;96998.00;4956601;28;20046;-80
2023/10/29 03:27:06;;;;;;;0.40;0.40;;;;;;;9.64;74.07;97008.59;4973210;28;20046;-82
2023/10/29 03:29:31;;;;;;;0.50;0.50;;;;;;;10.27;67.20;96990.19;4972509;28;20042;-80
2023/10/29 03:31:57;;;;;;;0.50;0.50;;;;;;;10.65;65.50;96997.38;4971850;28;20038;-81
2023/10/29 03:34:23;;;;;;;0.50;0.50;;;;;;;10.66;67.10;96996.47;4980993;28;20456;-80
2023/10/29 03:36:48;;;;;;;0.60;0.60;;;;;;;10.67;64.47;96993.81;4992522;28;20046;-82
2023/10/29 03:39:15;;;;;;;0.50;0.50;;;;;;;10.33;67.90;96990.22;4978689;28;20252;-81
2023/10/29 03:41:41;;;;;;;0.60;0.60;;;;;;;10.78;66.24;96993.84;4976328;28;20618;-82
2023/10/29 03:44:13;;;;;;;0.50;0.50;;;;;;;10.32;66.51;96998.22;4977163;28;20043;-81
2023/10/29 03:46:39;;;;;;;0.50;0.50;;;;;;;10.00;71.08;96991.84;4993314;28;20038;-80
2023/10/29 03:49:05;;;;;;;0.50;0.50;;;;;;;9.87;73.21;97006.03;4992384;28;20133;-79
2023/10/29 03:51:30;;;;;;;0.50;0.50;;;;;;;9.82;72.33;97010.47;4970924;28;20491;-81
2023/10/29 03:53:56;;;;;;;0.50;0.50;;;;;;;9.73;72.36;97002.44;4971922;28;20038;-81
2023/10/29 03:56:21;;;;;;;0.50;0.50;;;;;;;9.65;73.25;97014.81;4969867;28;20034;-81
2023/10/29 03:58:47;;;;;;;0.50;0.50;;;;;;;9.86;73.05;97006.91;4957902;28;20664;-82
2023/10/29 04:01:13;;;;;;;0.50;0.50;;;;;;;10.10;68.75;97005.22;4969477;28;20117;-79
2023/10/29 04:03:43;;;;;;;0.50;0.50;;;;;;;10.37;68.40;97001.78;4984604;28;20039;-81
2023/10/29 04:06:12;;;;;;;0.50;0.50;;;;;;;10.13;70.47;96999.91;4971050;28;20038;-81
2023/10/29 04:08:39;;;;;;;0.50;0.50;;;;;;;9.97;72.06;96999.84;4972625;28;20086;-79
2023/10/29 04:11:05;;;;;;;0.60;0.60;;;;;;;9.91;72.37;96999.81;4970973;28;20042;-81
2023/10/29 04:13:31;;;;;;;0.50;0.50;;;;;;;9.77;73.93;96997.13;4970281;28;20121;-82
2023/10/29 04:15:57;;;;;;;0.60;0.60;;;;;;;9.78;72.72;96995.34;4969155;28;20038;-82
2023/10/29 04:18:24;;;;;;;0.60;0.60;;;;;;;9.65;74.36;96991.72;4973819;28;20832;-82
2023/10/29 04:20:50;;;;;;;0.50;0.50;;;;;;;9.51;74.64;97006.75;4969147;28;20531;-79
2023/10/29 04:23:16;;;;;;;0.60;0.60;;;;;;;9.43;75.69;96990.72;4974099;28;20549;-81
2023/10/29 04:25:44;;;;;;;0.50;0.50;;;;;;;9.68;74.90;96997.06;4973619;28;20062;-81
2023/10/29 04:28:10;;;;;;;0.50;0.50;;;;;;;9.56;74.63;96997.00;4975789;28;20043;-80
2023/10/29 04:30:36;;;;;;;0.60;0.60;;;;;;;9.52;75.43;97005.84;4972748;28;20046;-81
2023/10/29 04:33:02;;;;;;;0.60;0.60;;;;;;;9.61;74.32;97015.66;4974872;28;20117;-80
2023/10/29 04:35:29;;;;;;;0.60;0.60;;;;;;;9.85;73.34;97010.44;4971983;28;20154;-79
2023/10/29 04:37:54;;;;;;;0.60;0.60;;;;;;;9.73;73.75;97010.41;4989834;28;20514;-80
2023/10/29 04:40:20;;;;;;;0.50;0.50;;;;;;;9.76;75.25;97018.41;4977229;28;20038;-80
2023/10/29 04:42:45;;;;;;;0.60;0.60;;;;;;;9.64;73.35;97016.59;4969559;28;20046;-82
2023/10/29 04:45:11;;;;;;;0.50;0.50;;;;;;;9.58;72.01;97018.31;4973400;28;20049;-81
2023/10/29 04:47:36;;;;;;;0.60;0.60;;;;;;;9.74;70.73;97013.06;4978391;28;20050;-79
2023/10/29 04:50:02;;;;;;;0.50;0.50;;;;;;;9.99;67.60;97018.50;4980136;28;20049;-80
2023/10/29 04:52:27;;;;;;;0.50;0.50;;;;;;;10.69;63.52;97012.50;4979811;28;20035;-81
2023/10/29 04:54:53;;;;;;;0.50;0.50;;;;;;;10.54;66.63;97008.03;4975255;28;20034;-81
2023/10/29 04:57:20;;;;;;;0.40;0.40;;;;;;;10.51;65.69;97008.91;4975056;28;20046;-81
2023/10/29 04:59:46;;;;;;;0.50;0.50;;;;;;;10.46;67.59;97013.34;4975558;28;20512;-81
2023/10/29 05:02:12;;;;;;;0.50;0.50;;;;;;;10.30;69.92;97013.28;4971194;28;20042;-81
2023/10/29 05:04:37;;;;;;;0.50;0.50;;;;;;;10.33;68.93;97008.88;4969962;28;20744;-81
2023/10/29 05:07:03;;;;;;;0.50;0.50;;;;;;;10.48;66.28;97002.66;4975222;28;20046;-81
2023/10/29 05:09:28;;;;;;;0.45;0.45;;;;;;;10.23;70.85;97001.69;4966633;28;20039;-80
2023/10/29 05:11:54;;;;;;;0.50;0.50;;;;;;;10.32;66.91;96993.78;4971698;28;20046;-81
2023/10/29 05:14:19;;;;;;;0.50;0.50;;;;;;;10.32;69.17;96984.88;4975467;28;20485;-82
2023/10/29 05:16:45;;;;;;;0.50;0.50;;;;;;;10.19;67.76;96982.13;4972922;28;20043;-81
2023/10/29 05:19:10;;;;;;;0.50;0.50;;;;;;;10.12;69.48;96976.81;4973052;28;20031;-81
2023/10/29 05:21:36;;;;;;;0.50;0.50;;;;;;;10.12;69.53;96980.38;4978074;28;20042;-82
2023/10/29 05:24:02;;;;;;;0.50;0.50;;;;;;;10.21;70.82;96974.19;4971141;28;20721;-81
2023/10/29 05:26:28;;;;;;;0.50;0.50;;;;;;;9.97;71.72;96967.88;4973247;28;20042;-80
2023/10/29 05:28:53;;;;;;;0.52;0.52;;;;;;;10.21;70.81;96969.72;4973765;28;20054;-80
2023/10/29 05:31:19;;;;;;;0.50;0.50;;;;;;;10.40;68.77;96969.81;4973139;28;20042;-80
2023/10/29 05:33:44;;;;;;;0.60;0.60;;;;;;;10.44;69.73;96968.88;4971162;28;20046;-81
2023/10/29 05:36:10;;;;;;;0.50;0.50;;;;;;;10.34;70.60;96964.44;4972609;28;20035;-80
2023/10/29 05:38:35;;;;;;;0.50;0.50;;;;;;;10.22;72.15;96955.50;4975644;28;20038;-81
2023/10/29 05:41:01;;;;;;;0.55;0.55;;;;;;;10.06;73.36;96972.38;4973071;28;20161;-81
2023/10/29 05:43:26;;;;;;;0.50;0.50;;;;;;;10.11;72.09;96972.34;4976077;28;20043;-80
2023/10/29 05:45:52;;;;;;;0.50;0.50;;;;;;;10.34;71.71;96986.66;4975917;28;20791;-81
2023/10/29 05:48:17;;;;;;;0.50;0.50;;;;;;;10.31;71.78;96981.34;4973498;28;20033;-80
2023/10/29 05:50:43;;;;;;;0.50;0.50;;;;;;;10.20;72.32;96983.91;4974242;28;20035;-81
2023/10/29 05:53:08;;;;;;;0.50;0.50;;;;;;;10.32;68.46;96984.88;4971987;28;20058;-81
2023/10/29 05:55:35;;;;;;;0.50;0.50;;;;;;;10.28;71.18;96986.66;4973849;28;20054;-81
2023/10/29 05:58:00;;;;;;;0.50;0.50;;;;;;;10.47;70.60;96998.22;4970996;28;20477;-80
2023/10/29 06:00:26;;;;;;;0.50;0.50;;;;;;;10.70;70.01;96995.59;4974525;28;20051;-81
2023/10/29 06:02:53;;;;;;;0.60;0.60;;;;;;;10.77;69.55;97000.03;4974840;28;20046;-80
2023/10/29 06:05:18;;;;;;;0.50;0.50;;;;;;;10.77;68.67;97005.38;4974406;28;20105;-79
2023/10/29 06:07:44;;;;;;;0.50;0.50;;;;;;;10.76;69.55;96996.47;4972583;28;20210;-81
2023/10/29 06:10:13;;;;;;;0.43;0.43;;;;;;;10.73;69.09;96990.25;4973834;28;20408;-81
2023/10/29 06:12:39;;;;;;;0.50;0.50;;;;;;;10.85;67.22;96998.25;4971746;28;20751;-81
2023/10/29 06:15:08;;;;;;;0.50;0.50;;;;;;;10.90;69.91;96999.16;4972890;28;21096;-79
2023/10/29 06:17:33;;;;;;;0.50;0.50;;;;;;;10.73;70.27;97001.84;4975444;28;20118;-80
2023/10/29 06:19:59;;;;;;;0.50;0.50;;;;;;;10.65;70.96;96998.25;4971757;28;20104;-81
2023/10/29 06:22:27;;;;;;;0.50;0.50;;;;;;;10.65;71.27;96986.72;4969832;28;20425;-80
2023/10/29 06:24:53;;;;;;;0.40;0.40;;;;;;;10.66;71.77;96984.03;4971678;28;20523;-80
2023/10/29 06:27:18;;;;;;;0.40;0.40;;;;;;;10.62;71.59;96986.69;4967533;28;20035;-82
2023/10/29 06:29:44;;;;;;;0.40;0.40;;;;;;;10.59;71.65;96998.25;4974711;28;20249;-82
2023/10/29 06:32:09;;;;;;;0.40;0.40;;;;;;;10.81;71.63;97012.50;4972456;28;20481;-81
2023/10/29 06:34:35;;;;;;;0.50;0.50;;;;;;;10.85;70.74;97021.38;4974003;28;20882;-82
2023/10/29 06:37:00;;;;;;;0.50;0.50;;;;;;;11.02;68.62;97022.31;4972136;28;20050;-81
2023/10/29 06:39:26;;;;;;;0.50;0.50;;;;;;;10.97;69.30;97029.38;4975957;28;20050;-81
2023/10/29 06:41:52;;;;;;;0.50;0.50;;;;;;;10.98;69.52;97025.84;4973298;28;20437;-81
2023/10/29 06:44:17;;;;;;;0.50;0.50;;;;;;;10.95;70.08;97033.84;4971053;28;20102;-81
2023/10/29 06:46:43;;;;;;;0.50;0.50;;;;;;;10.92;69.83;97032.09;4970488;28;20398;-81
2023/10/29 06:49:08;;;;;;;0.50;0.50;;;;;;;10.82;70.08;97040.94;4971952;28;20684;-80
2023/10/29 06:51:34;;;;;;;0.50;0.50;;;;;;;10.82;71.79;97048.94;4972610;28;20038;-81
2023/10/29 06:53:59;;;;;;;0.40;0.40;;;;;;;10.81;70.79;97048.94;4990512;28;20123;-80
2023/10/29 06:56:25;;;;;;;0.50;0.50;;;;;;;10.89;71.97;97047.19;4967799;28;20030;-82
2023/10/29 06:58:51;;;;;;;0.40;0.40;;;;;;;10.76;74.17;97057.84;4969473;28;20069;-82
2023/10/29 07:01:16;;;;;;;0.50;0.50;;;;;;;10.82;74.09;97070.28;4971407;28;20038;-83
2023/10/29 07:03:42;;;;;;;0.45;0.45;;;;;;;10.81;72.78;97072.97;4969538;28;20039;-82
2023/10/29 07:06:09;;;;;;;0.40;0.40;;;;;;;10.79;73.55;97084.53;4971445;28;20053;-82
2023/10/29 07:08:35;;;;;;;0.50;0.50;;;;;;;10.93;73.60;97084.56;4971900;28;20027;-81
2023/10/29 07:11:03;;;;;;;0.50;0.50;;;;;;;10.86;73.65;97089.88;4972314;28;20480;-81
2023/10/29 07:13:29;;;;;;;0.40;0.40;;;;;;;10.94;74.03;97098.78;4975686;28;20124;-82
2023/10/29 07:15:55;;;;;;;0.50;0.50;;;;;;;10.77;74.92;97098.72;4972071;28;20050;-83
2023/10/29 07:18:23;;;;;;;0.50;0.50;;;;;;;10.72;75.66;97104.06;4985979;28;20089;-82
2023/10/29 07:20:53;;;;;;;0.50;0.50;;;;;;;10.88;74.41;97104.13;4968239;28;20630;-82
2023/10/29 07:23:20;;;;;;;0.40;0.40;;;;;;;10.84;75.05;97102.31;4975815;28;20081;-82
2023/10/29 07:25:47;;;;;;;0.60;0.60;;;;;;;10.97;74.77;97113.03;4973381;28;20093;-82
2023/10/29 07:28:16;;;;;;;0.50;0.50;;;;;;;10.98;75.14;97108.56;4969672;28;20043;-82
2023/10/29 07:30:42;;;;;;;0.40;0.40;;;;;;;11.02;75.01;97113.91;4967723;28;20473;-82
2023/10/29 07:33:09;;;;;;;0.47;0.47;;;;;;;11.11;74.96;97128.13;4965807;28;20035;-82
2023/10/29 07:35:35;;;;;;;;;;;;;;;11.17;75.22;97123.72;4986113;28;20305;-83
2023/10/29 07:38:00;;;;;;;0.50;0.50;;;;;;;11.06;76.12;97130.81;4971632;28;19922;-82
2023/10/29 07:40:29;;;;;;;0.50;0.50;;;;;;;11.15;75.44;97129.94;4985126;28;20451;-82
2023/10/29 07:42:54;;;;;;;0.50;0.50;;;;;;;11.33;75.32;97116.59;4971947;28;20549;-81
2023/10/29 07:45:23;;;;;;;0.40;0.40;;;;;;;11.29;75.33;97118.38;4973577;28;20094;-82
2023/10/29 07:47:48;;;;;;;0.50;0.50;;;;;;;11.27;76.06;97121.94;4970564;28;20047;-81
2023/10/29 07:50:15;;;;;;;0.50;0.50;;;;;;;11.27;76.75;97129.94;4971935;28;20038;-80
2023/10/29 07:52:40;;;;;;;0.50;0.50;;;;;;;11.20;77.11;97133.50;4971169;28;20104;-81
2023/10/29 07:55:07;;;;;;;0.40;0.40;;;;;;;11.15;77.39;97119.25;4971809;28;20470;-80
2023/10/29 07:57:33;;;;;;;0.52;0.52;;;;;;;11.03;77.87;97121.03;4972228;28;20134;-82
2023/10/29 07:59:59;;;;;;;0.50;0.50;;;;;;;10.95;78.38;97122.78;4969518;28;20129;-81
2023/10/29 08:02:24;;;;;;;0.50;0.50;;;;;;;11.02;77.87;97127.25;4971316;28;20668;-81
2023/10/29 08:04:50;;;;;;;0.50;0.50;;;;;;;10.96;78.41;97142.34;4968839;28;20066;-82
2023/10/29 08:07:16;;;;;;;0.50;0.50;;;;;;;10.97;78.44;97147.72;4972119;28;20039;-82
2023/10/29 08:09:41;;;;;;;0.50;0.50;;;;;;;10.95;77.93;97146.81;4973055;28;20046;-83
2023/10/29 08:12:07;;;;;;;0.50;0.50;;;;;;;10.96;78.26;97155.69;4971637;28;20031;-83
2023/10/29 08:14:32;;;;;;;0.50;0.50;;;;;;;11.23;78.17;97149.53;4975606;28;20551;-81
2023/10/29 08:16:58;;;;;;;0.50;0.50;;;;;;;11.43;76.96;97155.75;4970518;28;20039;-82
2023/10/29 08:19:26;;;;;;;0.50;0.50;;;;;;;11.38;77.09;97160.22;4974866;28;20076;-82
2023/10/29 08:21:51;;;;;;;0.47;0.47;;;;;;;11.67;76.77;97162.88;4971969;28;20443;-82
2023/10/29 08:24:17;;;;;;;0.50;0.50;;;;;;;12.09;74.96;97168.22;4968780;28;20030;-81
2023/10/29 08:26:42;;;;;;;0.50;0.50;;;;;;;12.23;74.27;97172.66;4975357;28;20046;-82
2023/10/29 08:29:08;;;;;;;0.50;0.50;;;;;;;12.74;71.77;97175.13;4972162;28;20042;-82
2023/10/29 08:31:35;;;;;;;0.50;0.50;;;;;;;12.89;71.56;97176.84;4970562;28;20069;-82
2023/10/29 08:34:01;;;;;;;0.50;0.50;;;;;;;13.21;70.38;97173.97;4973567;28;20477;-82
2023/10/29 08:36:28;;;;;;;0.30;0.30;;;;;;;13.23;69.71;97167.78;4970590;28;20043;-82
2023/10/29 08:38:53;;;;;;;0.40;0.40;;;;;;;13.67;68.13;97161.19;4967950;28;20042;-82
2023/10/29 08:41:19;;;;;;;0.30;0.30;;;;;;;13.80;67.67;97165.53;4970508;28;20043;-82
2023/10/29 08:43:44;;;;;;;0.40;0.40;;;;;;;13.70;67.09;97166.53;4971837;28;20038;-82
2023/10/29 08:46:10;;;;;;;0.40;0.40;;;;;;;13.59;68.20;97171.06;4970706;28;20050;-82
2023/10/29 08:48:36;;;;;;;0.30;0.30;;;;;;;13.94;67.67;97173.47;4972614;28;20051;-82
2023/10/29 08:51:01;;;;;;;0.40;0.40;;;;;;;13.65;69.24;97175.47;4966657;28;20430;-82
2023/10/29 08:53:27;;;;;;;0.40;0.40;;;;;;;13.56;69.93;97176.47;4968608;28;20034;-82
2023/10/29 08:55:52;;;;;;;0.40;0.40;;;;;;;13.37;70.39;97185.50;4965451;28;20396;-81
2023/10/29 08:58:20;;;;;;;0.40;0.40;;;;;;;13.56;69.48;97192.56;4986111;28;20030;-81
2023/10/29 09:00:46;;;;;;;0.40;0.40;;;;;;;13.76;69.19;97203.13;4972200;28;20133;-82
2023/10/29 09:03:15;;;;;;;0.40;0.40;;;;;;;13.68;69.60;97203.16;4971947;28;20146;-81
2023/10/29 09:05:41;;;;;;;0.40;0.40;;;;;;;13.67;70.15;97196.03;4972568;28;20037;-81
2023/10/29 09:08:07;;;;;;;0.38;0.38;;;;;;;13.53;69.42;97198.81;4989292;28;20057;-83
2023/10/29 09:10:33;;;;;;;0.32;0.32;;;;;;;13.64;70.47;97190.69;4976360;28;20362;-81
2023/10/29 09:12:59;;;;;;;0.30;0.30;;;;;;;13.57;69.70;97194.31;4976964;28;20101;-81
2023/10/29 09:15:25;;;;;;;0.40;0.40;;;;;;;13.78;69.85;97187.91;4971972;28;20102;-81
2023/10/29 09:17:51;;;;;;;0.40;0.40;;;;;;;13.50;69.55;97184.53;4972207;28;20046;-81
2023/10/29 09:20:19;;;;;;;0.40;0.40;;;;;;;13.29;70.17;97181.13;4939268;28;20158;-80
2023/10/29 09:22:45;;;;;;;0.40;0.40;;;;;;;13.57;68.83;97176.44;4955636;28;20041;-80
2023/10/29 09:25:10;;;;;;;0.30;0.30;;;;;;;13.38;68.44;97171.25;4957040;28;20039;-81
2023/10/29 09:27:36;;;;;;;0.40;0.40;;;;;;;13.51;69.81;97172.91;4955888;28;20065;-81
2023/10/29 09:30:02;;;;;;;0.40;0.40;;;;;;;13.83;68.93;97169.97;4954391;28;20053;-81
2023/10/29 09:32:27;;;;;;;0.30;0.30;;;;;;;13.86;66.65;97161.91;4955091;28;21001;-80
2023/10/29 09:34:53;;;;;;;0.30;0.30;;;;;;;14.09;68.70;97170.63;4969077;28;20724;-81
2023/10/29 09:37:18;;;;;;;0.30;0.30;;;;;;;14.08;66.74;97165.25;4957310;28;20945;-81
2023/10/29 09:39:44;;;;;;;0.30;0.30;;;;;;;14.08;69.11;97160.81;4955917;28;20050;-81
2023/10/29 09:42:11;;;;;;;0.30;0.30;;;;;;;13.97;69.58;97165.38;4954552;28;20047;-81
2023/10/29 09:44:40;;;;;;;0.32;0.32;;;;;;;14.11;69.38;97158.09;4973512;28;20039;-81
2023/10/29 09:47:18;;;;;;;0.30;0.30;;;;;;;14.05;68.66;97158.16;4955115;28;20126;-81
2023/10/29 09:49:44;;;;;;;0.30;0.30;;;;;;;13.93;69.59;97142.19;4969306;28;20102;-81
2023/10/29 09:52:09;;;;;;;0.30;0.30;;;;;;;13.76;69.07;97147.72;4955466;28;20038;-81
2023/10/29 09:54:38;;;;;;;0.30;0.30;;;;;;;13.83;69.25;97143.16;4955870;28;20050;-81
2023/10/29 09:57:06;;;;;;;0.30;0.30;;;;;;;13.72;70.25;97140.59;4954011;28;20086;-81
2023/10/29 09:59:31;;;;;;;;;;;;;;;13.64;70.18;97138.88;4956404;28;20039;-81
2023/10/29 10:01:57;;;;;;;0.40;0.40;;;;;;;13.52;70.31;97146.13;4955302;28;19925;-81
2023/10/29 10:04:22;;;;;;;0.40;0.40;;;;;;;13.57;68.14;97141.63;4969435;28;20386;-81
2023/10/29 10:06:48;;;;;;;0.30;0.30;;;;;;;13.59;68.55;97141.59;4955101;28;20470;-81
2023/10/29 10:09:14;;;;;;;0.40;0.40;;;;;;;13.50;69.85;97137.19;4954594;28;20077;-83
2023/10/29 10:11:39;;;;;;;0.40;0.40;;;;;;;13.45;69.77;97128.31;4954166;28;20079;-81
2023/10/29 10:14:05;;;;;;;0.40;0.40;;;;;;;13.47;70.71;97122.97;4968184;28;20043;-80
2023/10/29 10:16:30;;;;;;;0.30;0.30;;;;;;;13.59;71.26;97113.00;4956683;28;20496;-81
2023/10/29 10:18:58;;;;;;;0.40;0.40;;;;;;;13.85;70.83;97104.72;4955358;28;20047;-81
2023/10/29 10:21:26;;;;;;;0.40;0.40;;;;;;;14.16;70.52;97090.09;4954825;28;20043;-80
2023/10/29 10:23:53;;;;;;;0.32;0.32;;;;;;;14.27;69.26;97096.22;4953400;28;20045;-81
2023/10/29 10:26:27;;;;;;;0.35;0.35;;;;;;;14.18;68.26;97089.19;4937011;28;20039;-81
2023/10/29 10:28:58;;;;;;;0.40;0.40;;;;;;;14.21;70.42;97086.47;4958305;28;20766;-82
2023/10/29 10:31:27;;;;;;;0.30;0.30;;;;;;;14.23;68.31;97081.06;4955452;28;20045;-81
2023/10/29 10:34:17;;;;;;;0.30;0.30;;;;;;;14.07;68.93;97078.56;4955494;28;20134;-81
2023/10/29 10:36:44;;;;;;;0.30;0.30;;;;;;;14.14;70.91;97086.56;4955120;28;20397;-80
2023/10/29 10:39:13;;;;;;;0.30;0.30;;;;;;;14.14;70.94;97079.41;4956467;28;20485;-81
2023/10/29 10:41:45;;;;;;;0.30;0.30;;;;;;;14.13;71.69;97085.66;4955386;28;20058;-80
2023/10/29 10:44:19;;;;;;;0.30;0.30;;;;;;;13.99;72.41;97083.16;4955723;28;20043;-80
2023/10/29 10:46:51;;;;;;;0.32;0.32;;;;;;;14.07;72.79;97075.88;4953677;28;20054;-80
2023/10/29 10:49:17;;;;;;;0.30;0.30;;;;;;;14.11;72.25;97069.59;4960464;28;20165;-81
2023/10/29 10:51:45;;;;;;;0.30;0.30;;;;;;;14.10;71.72;97065.13;4953784;28;20125;-80
2023/10/29 10:54:11;;;;;;;0.30;0.30;;;;;;;14.06;73.66;97055.34;4954407;28;20046;-81
2023/10/29 10:56:38;;;;;;;0.30;0.30;;;;;;;13.90;73.84;97061.78;4968537;28;20035;-81
2023/10/29 10:59:04;;;;;;;0.30;0.30;;;;;;;13.72;74.82;97059.31;4953599;28;20035;-80
2023/10/29 11:01:31;;;;;;;0.40;0.40;;;;;;;13.65;75.20;97066.50;4956644;28;20069;-80
2023/10/29 11:03:58;;;;;;;0.40;0.40;;;;;;;13.64;75.63;97053.13;4934304;28;20051;-80
2023/10/29 11:06:23;;;;;;;0.40;0.40;;;;;;;13.71;76.11;97057.53;4952217;28;20097;-80
2023/10/29 11:08:49;;;;;;;0.30;0.30;;;;;;;13.79;75.86;97055.63;4956406;28;20039;-80
2023/10/29 11:11:16;;;;;;;0.30;0.30;;;;;;;13.82;76.77;97042.22;4955354;28;20070;-81
2023/10/29 11:13:41;;;;;;;0.40;0.40;;;;;;;13.70;76.29;97045.94;4952923;28;20062;-81
2023/10/29 11:16:24;;;;;;;0.30;0.30;;;;;;;13.83;75.62;97062.75;4956000;28;20039;-82
2023/10/29 11:18:50;;;;;;;0.30;0.30;;;;;;;13.81;75.17;97060.09;4969552;28;20046;-82
2023/10/29 11:21:33;;;;;;;0.30;0.30;;;;;;;13.97;74.52;97057.25;4953340;28;20089;-82
2023/10/29 11:24:18;;;;;;;0.30;0.30;;;;;;;14.03;74.44;97039.28;4970936;28;20074;-82
2023/10/29 11:26:44;;;;;;;0.30;0.30;;;;;;;14.20;74.84;97032.84;4953744;28;20130;-81
2023/10/29 11:29:42;;;;;;;0.32;0.32;;;;;;;14.27;73.36;97046.13;4954592;28;20242;-82
2023/10/29 11:32:25;;;;;;;0.30;0.30;;;;;;;14.33;73.00;97047.88;4953662;28;20038;-81
2023/10/29 11:35:22;;;;;;;0.30;0.30;;;;;;;14.24;74.19;97042.63;4955186;28;20639;-81